createdAt,value
2022-10-01T00:01:07.479Z,97256.84
2022-10-01T00:03:35.197Z,97260.66
2022-10-01T00:06:03.942Z,97250.47
2022-10-01T00:08:33.014Z,97234.75
2022-10-01T00:10:59.532Z,97239.41
2022-10-01T00:13:26.070Z,97241.50
2022-10-01T00:15:52.583Z,97237.03
2022-10-01T00:18:19.139Z,97236.53
2022-10-01T00:20:45.678Z,97235.34
2022-10-01T00:23:13.296Z,97237.78
2022-10-01T00:25:41.437Z,97238.63
2022-10-01T00:28:08.089Z,97235.88
2022-10-01T00:30:39.606Z,97239.13
2022-10-01T00:33:06.764Z,97243.81
2022-10-01T00:35:33.327Z,97244.00
2022-10-01T00:37:59.842Z,97248.63
2022-10-01T00:40:26.381Z,97245.66
2022-10-01T00:42:54.293Z,97245.94
2022-10-01T00:45:20.850Z,97240.28
2022-10-01T00:47:51.579Z,97237.75
2022-10-01T00:50:23.988Z,97233.06
2022-10-01T00:52:53.680Z,97235.13
2022-10-01T00:55:23.508Z,97239.38
2022-10-01T00:57:50.584Z,97243.22
2022-10-01T01:00:18.647Z,97243.72
2022-10-01T01:02:45.193Z,97242.53
2022-10-01T01:05:12.403Z,97249.69
2022-10-01T01:07:41.202Z,97241.84
2022-10-01T01:10:09.003Z,97246.53
2022-10-01T01:13:00.792Z,97247.34
2022-10-01T01:15:36.326Z,97239.41
2022-10-01T01:18:08.062Z,97238.59
2022-10-01T01:20:53.326Z,97238.00
2022-10-01T01:23:47.033Z,97244.09
2022-10-01T01:26:24.832Z,97234.28
2022-10-01T01:28:57.694Z,97243.09
2022-10-01T01:31:29.931Z,97240.13
2022-10-01T01:33:59.948Z,97227.78
2022-10-01T01:36:31.302Z,97238.56
2022-10-01T01:39:01.551Z,97238.13
2022-10-01T01:41:29.618Z,97236.25
2022-10-01T01:44:00.983Z,97228.94
2022-10-01T01:46:32.311Z,97224.28
2022-10-01T01:49:01.680Z,97221.00
2022-10-01T01:51:34.110Z,97214.84
2022-10-01T01:54:01.032Z,97226.28
2022-10-01T01:56:28.122Z,97227.47
2022-10-01T01:58:54.739Z,97222.81
2022-10-01T02:01:37.945Z,97215.34
2022-10-01T02:04:09.019Z,97224.94
2022-10-01T02:06:48.776Z,97213.13
2022-10-01T02:09:27.255Z,97217.81
2022-10-01T02:12:07.268Z,97221.72
2022-10-01T02:14:40.916Z,97216.97
2022-10-01T02:17:16.198Z,97216.91
2022-10-01T02:19:52.404Z,97226.53
2022-10-01T02:22:22.697Z,97227.94
2022-10-01T02:24:54.547Z,97223.81
2022-10-01T02:27:24.073Z,97231.22
2022-10-01T02:29:51.011Z,97221.66
2022-10-01T02:32:20.344Z,97218.16
2022-10-01T02:34:49.805Z,97222.47
2022-10-01T02:37:17.935Z,97219.44
2022-10-01T02:39:47.630Z,97208.72
2022-10-01T02:42:16.565Z,97218.38
2022-10-01T02:44:45.014Z,97214.84
2022-10-01T02:47:18.142Z,97214.59
2022-10-01T02:49:47.216Z,97199.03
2022-10-01T02:52:21.056Z,97202.63
2022-10-01T02:54:51.755Z,97206.72
2022-10-01T02:57:19.157Z,97193.34
2022-10-01T02:59:45.724Z,97198.31
2022-10-01T03:02:12.646Z,97199.66
2022-10-01T03:04:39.361Z,97204.38
2022-10-01T03:07:07.517Z,97194.75
2022-10-01T03:09:35.143Z,97201.06
2022-10-01T03:12:02.228Z,97198.06
2022-10-01T03:14:28.945Z,97206.06
2022-10-01T03:16:55.527Z,97201.97
2022-10-01T03:19:22.060Z,97203.31
2022-10-01T03:21:48.657Z,97199.50
2022-10-01T03:24:16.546Z,97198.75
2022-10-01T03:26:43.100Z,97194.09
2022-10-01T03:29:09.732Z,97194.59
2022-10-01T03:31:36.790Z,97202.53
2022-10-01T03:34:03.647Z,97195.06
2022-10-01T03:36:30.380Z,97198.97
2022-10-01T03:38:57.112Z,97194.66
2022-10-01T03:41:25.139Z,97191.91
2022-10-01T03:43:51.725Z,97182.84
2022-10-01T03:46:18.261Z,97181.94
2022-10-01T03:48:44.800Z,97182.78
2022-10-01T03:51:11.351Z,97183.59
2022-10-01T03:53:37.887Z,97176.97
2022-10-01T03:56:04.635Z,97177.56
2022-10-01T03:58:32.527Z,97174.06
2022-10-01T04:00:59.079Z,97179.56
2022-10-01T04:03:25.609Z,97179.56
2022-10-01T04:05:52.335Z,97175.22
2022-10-01T04:08:23.438Z,97177.91
2022-10-01T04:10:50.896Z,97177.38
2022-10-01T04:13:17.628Z,97171.34
2022-10-01T04:15:45.577Z,97173.00
2022-10-01T04:18:12.191Z,97173.59
2022-10-01T04:20:38.953Z,97178.00
2022-10-01T04:23:05.668Z,97169.41
2022-10-01T04:25:32.555Z,97176.91
2022-10-01T04:28:01.008Z,97166.53
2022-10-01T04:30:30.451Z,97170.69
2022-10-01T04:32:58.514Z,97163.53
2022-10-01T04:35:25.991Z,97166.28
2022-10-01T04:37:56.236Z,97167.44
2022-10-01T04:40:22.775Z,97166.88
2022-10-01T04:42:49.335Z,97156.69
2022-10-01T04:45:16.071Z,97159.97
2022-10-01T04:47:47.992Z,97153.66
2022-10-01T04:50:15.970Z,97161.91
2022-10-01T04:52:42.551Z,97153.66
2022-10-01T04:55:09.451Z,97154.44
2022-10-01T04:57:36.552Z,97163.19
2022-10-01T05:00:03.912Z,97156.25
2022-10-01T05:02:30.631Z,97162.81
2022-10-01T05:04:57.199Z,97161.16
2022-10-01T05:07:25.113Z,97163.41
2022-10-01T05:09:51.668Z,97166.34
2022-10-01T05:12:22.342Z,97169.31
2022-10-01T05:14:51.180Z,97175.81
2022-10-01T05:17:17.771Z,97179.06
2022-10-01T05:19:44.392Z,97183.16
2022-10-01T05:22:11.062Z,97180.63
2022-10-01T05:24:39.764Z,97175.91
2022-10-01T05:27:06.461Z,97173.88
2022-10-01T05:29:32.983Z,97164.97
2022-10-01T05:31:59.578Z,97161.47
2022-10-01T05:34:26.123Z,97166.94
2022-10-01T05:36:52.695Z,97165.16
2022-10-01T05:39:19.241Z,97169.47
2022-10-01T05:41:47.194Z,97166.06
2022-10-01T05:44:13.730Z,97152.22
2022-10-01T05:46:40.312Z,97161.84
2022-10-01T05:49:06.844Z,97163.47
2022-10-01T05:51:33.646Z,97172.78
2022-10-01T05:54:00.382Z,97175.97
2022-10-01T05:56:27.061Z,97172.63
2022-10-01T05:58:54.973Z,97178.28
2022-10-01T06:01:21.547Z,97174.94
2022-10-01T06:03:50.824Z,97176.50
2022-10-01T06:06:20.994Z,97180.00
2022-10-01T06:08:47.536Z,97178.28
2022-10-01T06:11:14.082Z,97183.50
2022-10-01T06:13:40.627Z,97177.03
2022-10-01T06:16:08.629Z,97175.22
2022-10-01T06:18:35.229Z,97171.56
2022-10-01T06:21:01.796Z,97181.59
2022-10-01T06:23:28.442Z,97176.41
2022-10-01T06:25:55.026Z,97185.56
2022-10-01T06:28:21.616Z,97181.84
2022-10-01T06:30:48.347Z,97175.13
2022-10-01T06:33:17.632Z,97179.56
2022-10-01T06:35:45.610Z,97185.00
2022-10-01T06:38:12.175Z,97184.13
2022-10-01T06:40:39.686Z,97183.72
2022-10-01T06:43:06.245Z,97180.03
2022-10-01T06:45:36.736Z,97177.78
2022-10-01T06:48:04.145Z,97187.59
2022-10-01T06:50:33.283Z,97183.09
2022-10-01T06:53:00.812Z,97182.28
2022-10-01T06:55:29.111Z,97185.91
2022-10-01T06:57:56.631Z,97170.59
2022-10-01T07:00:23.265Z,97175.09
2022-10-01T07:02:50.051Z,97173.97
2022-10-01T07:05:16.814Z,97167.13
2022-10-01T07:07:44.762Z,97157.13
2022-10-01T07:10:12.570Z,97166.00
2022-10-01T07:12:39.220Z,97156.69
2022-10-01T07:15:07.338Z,97156.69
2022-10-01T07:17:34.568Z,97156.31
2022-10-01T07:20:01.420Z,97162.13
2022-10-01T07:22:27.939Z,97162.63
2022-10-01T07:24:55.884Z,97159.84
2022-10-01T07:27:22.577Z,97149.03
2022-10-01T07:29:49.125Z,97149.09
2022-10-01T07:32:15.675Z,97148.31
2022-10-01T07:34:42.257Z,97151.88
2022-10-01T07:37:09.437Z,97152.88
2022-10-01T07:39:36.246Z,97152.06
2022-10-01T07:42:04.478Z,97153.31
2022-10-01T07:44:31.035Z,97154.81
2022-10-01T07:46:57.606Z,97159.25
2022-10-01T07:49:24.412Z,97167.25
2022-10-01T07:51:51.692Z,97157.59
2022-10-01T07:54:18.273Z,97149.31
2022-10-01T07:56:44.838Z,97152.91
2022-10-01T07:59:12.729Z,97152.38
2022-10-01T08:01:39.433Z,97152.06
2022-10-01T08:04:06.358Z,97150.19
2022-10-01T08:06:32.892Z,97152.56
2022-10-01T08:08:59.428Z,97154.00
2022-10-01T08:11:25.996Z,97139.63
2022-10-01T08:13:52.550Z,97137.19
2022-10-01T08:16:20.501Z,97134.06
2022-10-01T08:18:47.080Z,97147.66
2022-10-01T08:21:13.639Z,97138.09
2022-10-01T08:23:40.201Z,97129.31
2022-10-01T08:26:08.207Z,97134.91
2022-10-01T08:28:35.427Z,97129.53
2022-10-01T08:31:05.188Z,97121.88
2022-10-01T08:33:33.606Z,97125.31
2022-10-01T08:36:01.444Z,97121.50
2022-10-01T08:38:28.087Z,97116.28
2022-10-01T08:40:54.776Z,97111.03
2022-10-01T08:43:32.292Z,97115.25
2022-10-01T08:46:03.029Z,97121.25
2022-10-01T08:48:44.898Z,97116.16
2022-10-01T08:51:17.647Z,97111.97
2022-10-01T08:53:48.187Z,97118.03
2022-10-01T08:56:20.370Z,97125.41
2022-10-01T08:58:53.279Z,97117.88
2022-10-01T09:01:20.003Z,97111.06
2022-10-01T09:03:48.353Z,97112.69
2022-10-01T09:06:20.515Z,97129.13
2022-10-01T09:09:01.565Z,97124.69
2022-10-01T09:11:42.839Z,97119.19
2022-10-01T09:14:22.139Z,97127.00
2022-10-01T09:16:57.830Z,97130.53
2022-10-01T09:19:47.991Z,97133.03
2022-10-01T09:22:25.190Z,97141.19
2022-10-01T09:25:01.104Z,97131.41
2022-10-01T09:27:28.282Z,97138.47
2022-10-01T09:29:58.529Z,97136.91
2022-10-01T09:32:30.262Z,97135.75
2022-10-01T09:35:04.666Z,97135.59
2022-10-01T09:37:41.859Z,97145.03
2022-10-01T09:40:17.654Z,97144.22
2022-10-01T09:42:44.282Z,97146.56
2022-10-01T09:45:12.015Z,97141.03
2022-10-01T09:47:38.567Z,97137.91
2022-10-01T09:50:07.186Z,97145.53
2022-10-01T09:52:36.183Z,97142.19
2022-10-01T09:55:06.184Z,97124.63
2022-10-01T09:57:36.474Z,97124.81
2022-10-01T10:00:06.911Z,97121.59
2022-10-01T10:02:42.369Z,97113.34
2022-10-01T10:05:17.056Z,97113.84
2022-10-01T10:07:45.708Z,97112.06
2022-10-01T10:10:23.292Z,97116.47
2022-10-01T10:12:56.166Z,97104.69
2022-10-01T10:15:23.701Z,97109.69
2022-10-01T10:17:50.414Z,97113.34
2022-10-01T10:20:25.298Z,97107.16
2022-10-01T10:22:52.021Z,97103.88
2022-10-01T10:25:24.562Z,97104.66
2022-10-01T10:27:53.973Z,97111.03
2022-10-01T10:30:21.676Z,97098.31
2022-10-01T10:32:48.328Z,97098.72
2022-10-01T10:35:19.538Z,97105.38
2022-10-01T10:37:51.435Z,97106.88
2022-10-01T10:40:18.625Z,97097.56
2022-10-01T10:42:47.839Z,97100.13
2022-10-01T10:45:18.074Z,97089.13
2022-10-01T10:47:46.731Z,97100.63
2022-10-01T10:50:30.420Z,97091.63
2022-10-01T10:52:58.511Z,97089.13
2022-10-01T10:55:27.339Z,97081.13
2022-10-01T10:57:57.525Z,97073.47
2022-10-01T11:00:25.781Z,97065.16
2022-10-01T11:02:55.746Z,97065.59
2022-10-01T11:05:24.407Z,97060.28
2022-10-01T11:07:54.734Z,97063.84
2022-10-01T11:10:41.450Z,97046.41
2022-10-01T11:13:54.780Z,97052.09
2022-10-01T11:16:47.598Z,97044.28
2022-10-01T11:19:29.945Z,97047.84
2022-10-01T11:22:14.353Z,97045.81
2022-10-01T11:25:00.076Z,97036.97
2022-10-01T11:27:35.871Z,97035.22
2022-10-01T11:30:07.579Z,97035.22
2022-10-01T11:32:39.441Z,97029.72
2022-10-01T11:35:20.661Z,97022.34
2022-10-01T11:38:00.651Z,97035.16
2022-10-01T11:40:32.357Z,97038.63
2022-10-01T11:43:05.119Z,97039.25
2022-10-01T11:45:34.949Z,97032.13
2022-10-01T11:48:07.411Z,97030.91
2022-10-01T11:50:39.330Z,97024.06
2022-10-01T11:53:12.261Z,97035.53
2022-10-01T11:55:43.550Z,97026.75
2022-10-01T11:58:17.705Z,97021.53
2022-10-01T12:00:54.382Z,97011.41
2022-10-01T12:03:28.693Z,97012.38
2022-10-01T12:05:56.686Z,97014.81
2022-10-01T12:08:26.227Z,97013.75
2022-10-01T12:10:56.447Z,97016.66
2022-10-01T12:13:30.005Z,97012.50
2022-10-01T12:16:00.981Z,97009.97
2022-10-01T12:18:32.265Z,97012.56
2022-10-01T12:21:01.605Z,97007.53
2022-10-01T12:23:30.742Z,97012.63
2022-10-01T12:26:06.509Z,97015.56
2022-10-01T12:28:40.905Z,97012.69
2022-10-01T12:31:14.630Z,97018.47
2022-10-01T12:34:02.865Z,97035.81
2022-10-01T12:36:43.146Z,97034.78
2022-10-01T12:39:25.855Z,97033.41
2022-10-01T12:42:02.633Z,97030.00
2022-10-01T12:44:50.078Z,97042.38
2022-10-01T12:47:35.704Z,97036.28
2022-10-01T12:50:12.181Z,97034.72
2022-10-01T12:52:45.103Z,97024.66
2022-10-01T12:55:23.660Z,97044.69
2022-10-01T12:58:03.531Z,97042.75
2022-10-01T13:00:39.028Z,97044.28
2022-10-01T13:03:34.282Z,97040.38
2022-10-01T13:06:11.519Z,97048.56
2022-10-01T13:08:52.387Z,97048.38
2022-10-01T13:11:30.150Z,97054.75
2022-10-01T13:13:57.656Z,97060.59
2022-10-01T13:16:31.659Z,97044.41
2022-10-01T13:19:05.685Z,97045.72
2022-10-01T13:21:50.024Z,97036.41
2022-10-01T13:24:24.907Z,97043.84
2022-10-01T13:26:57.882Z,97044.19
2022-10-01T13:29:35.373Z,97043.72
2022-10-01T13:32:23.031Z,97036.25
2022-10-01T13:34:49.570Z,97037.50
2022-10-01T13:37:18.004Z,97041.59
2022-10-01T13:39:46.068Z,97047.13
2022-10-01T13:42:22.167Z,97043.16
2022-10-01T13:44:53.633Z,97037.13
2022-10-01T13:47:22.823Z,97041.41
2022-10-01T13:49:56.498Z,97050.69
2022-10-01T13:52:23.203Z,97047.13
2022-10-01T13:54:53.203Z,97052.47
2022-10-01T13:57:29.026Z,97059.94
2022-10-01T14:00:00.715Z,97048.75
2022-10-01T14:02:34.767Z,97049.91
2022-10-01T14:05:27.919Z,97037.75
2022-10-01T14:08:02.867Z,97040.88
2022-10-01T14:10:36.481Z,97038.44
2022-10-01T14:13:04.699Z,97032.75
2022-10-01T14:15:41.489Z,97038.41
2022-10-01T14:18:14.650Z,97034.38
2022-10-01T14:20:53.661Z,97031.19
2022-10-01T14:23:27.767Z,97023.34
2022-10-01T14:26:01.885Z,97031.88
2022-10-01T14:28:59.406Z,97037.91
2022-10-01T14:31:37.001Z,97040.50
2022-10-01T14:34:38.775Z,97044.28
2022-10-01T14:37:07.223Z,97045.06
2022-10-01T14:39:33.888Z,97037.72
2022-10-01T14:42:16.640Z,97035.16
2022-10-01T14:44:45.971Z,97036.28
2022-10-01T14:47:16.843Z,97033.84
2022-10-01T14:49:44.779Z,97034.50
2022-10-01T14:52:19.903Z,97031.75
2022-10-01T14:54:50.879Z,97034.94
2022-10-01T14:57:26.604Z,97038.34
2022-10-01T14:59:53.903Z,97042.41
2022-10-01T15:02:22.420Z,97039.75
2022-10-01T15:04:51.838Z,97029.03
2022-10-01T15:07:18.742Z,97028.19
2022-10-01T15:09:45.909Z,97029.03
2022-10-01T15:12:13.654Z,97036.03
2022-10-01T15:14:41.966Z,97026.41
2022-10-01T15:17:18.815Z,97041.19
2022-10-01T15:19:46.660Z,97041.03
2022-10-01T15:22:14.638Z,97025.56
2022-10-01T15:24:43.390Z,97036.63
2022-10-01T15:27:12.260Z,97034.97
2022-10-01T15:29:40.072Z,97031.41
2022-10-01T15:32:07.466Z,97031.75
2022-10-01T15:34:34.871Z,97040.84
2022-10-01T15:37:01.901Z,97036.13
2022-10-01T15:39:32.333Z,97040.84
2022-10-01T15:42:01.219Z,97045.06
2022-10-01T15:44:40.859Z,97040.66
2022-10-01T15:47:34.563Z,97037.56
2022-10-01T15:50:03.503Z,97030.59
2022-10-01T15:52:33.507Z,97033.38
2022-10-01T15:55:01.534Z,97033.03
2022-10-01T15:57:28.961Z,97040.38
2022-10-01T15:59:56.693Z,97044.47
2022-10-01T16:02:26.692Z,97048.53
2022-10-01T16:04:53.913Z,97050.97
2022-10-01T16:07:25.318Z,97041.56
2022-10-01T16:09:55.730Z,97049.72
2022-10-01T16:12:23.728Z,97050.97
2022-10-01T16:15:00.986Z,97055.19
2022-10-01T16:17:34.362Z,97056.19
2022-10-01T16:20:17.325Z,97057.00
2022-10-01T16:22:44.320Z,97064.03
2022-10-01T16:25:31.992Z,97052.16
2022-10-01T16:28:00.965Z,97065.00
2022-10-01T16:30:28.764Z,97071.34
2022-10-01T16:32:56.753Z,97068.06
2022-10-01T16:35:24.759Z,97073.31
2022-10-01T16:37:52.406Z,97083.34
2022-10-01T16:40:21.203Z,97082.53
2022-10-01T16:42:48.942Z,97084.81
2022-10-01T16:45:19.624Z,97092.16
2022-10-01T16:47:46.295Z,97092.16
2022-10-01T16:50:15.510Z,97099.31
2022-10-01T16:52:42.225Z,97096.69
2022-10-01T16:55:17.114Z,97106.63
2022-10-01T16:57:43.759Z,97100.59
2022-10-01T17:00:13.506Z,97112.31
2022-10-01T17:02:41.392Z,97106.78
2022-10-01T17:05:17.592Z,97113.44
2022-10-01T17:07:44.143Z,97112.31
2022-10-01T17:10:10.799Z,97115.56
2022-10-01T17:12:37.352Z,97110.84
2022-10-01T17:15:04.587Z,97118.66
2022-10-01T17:17:31.157Z,97118.66
2022-10-01T17:19:59.116Z,97115.38
2022-10-01T17:22:25.661Z,97121.75
2022-10-01T17:24:52.240Z,97119.16
2022-10-01T17:27:18.832Z,97128.59
2022-10-01T17:29:45.585Z,97119.97
2022-10-01T17:32:12.127Z,97124.69
2022-10-01T17:34:38.688Z,97127.44
2022-10-01T17:37:06.560Z,97129.41
2022-10-01T17:39:33.153Z,97140.94
2022-10-01T17:41:59.709Z,97150.91
2022-10-01T17:44:26.267Z,97145.03
2022-10-01T17:46:52.842Z,97149.13
2022-10-01T17:49:19.393Z,97151.75
2022-10-01T17:51:45.963Z,97153.53
2022-10-01T17:54:13.871Z,97168.50
2022-10-01T17:56:40.435Z,97179.56
2022-10-01T17:59:07.002Z,97187.69
2022-10-01T18:01:33.836Z,97186.22
2022-10-01T18:04:00.716Z,97181.84
2022-10-01T18:06:27.445Z,97181.34
2022-10-01T18:08:56.204Z,97185.09
2022-10-01T18:11:25.879Z,97196.16
2022-10-01T18:13:52.536Z,97195.69
2022-10-01T18:16:19.819Z,97202.03
2022-10-01T18:21:33.403Z,97204.97
2022-10-01T18:24:04.124Z,97211.66
2022-10-01T18:26:32.877Z,97208.88
2022-10-01T18:29:00.158Z,97201.91
2022-10-01T18:31:36.099Z,97203.00
2022-10-01T18:34:12.097Z,97204.78
2022-10-01T18:36:47.250Z,97206.59
2022-10-01T18:39:17.352Z,97210.38
2022-10-01T18:41:45.387Z,97205.34
2022-10-01T18:44:17.999Z,97209.56
2022-10-01T18:46:55.730Z,97205.97
2022-10-01T18:49:42.732Z,97208.28
2022-10-01T18:52:18.610Z,97209.56
2022-10-01T18:55:05.898Z,97214.25
2022-10-01T18:57:50.855Z,97219.31
2022-10-01T19:00:19.552Z,97222.06
2022-10-01T19:03:18.866Z,97218.69
2022-10-01T19:06:11.362Z,97223.69
2022-10-01T19:08:51.106Z,97222.38
2022-10-01T19:11:25.782Z,97225.31
2022-10-01T19:14:16.036Z,97224.34
2022-10-01T19:16:50.723Z,97232.00
2022-10-01T19:19:30.068Z,97235.41
2022-10-01T19:22:00.757Z,97246.28
2022-10-01T19:24:47.125Z,97238.47
2022-10-01T19:27:24.193Z,97246.72
2022-10-01T19:30:06.116Z,97253.69
2022-10-01T19:32:41.054Z,97256.16
2022-10-01T19:35:16.743Z,97256.34
2022-10-01T19:37:47.732Z,97260.56
2022-10-01T19:40:22.015Z,97262.84
2022-10-01T19:42:53.863Z,97270.50
2022-10-01T19:45:24.713Z,97277.16
2022-10-01T19:47:57.257Z,97274.25
2022-10-01T19:50:27.476Z,97276.84
2022-10-01T19:52:57.991Z,97284.81
2022-10-01T19:55:26.226Z,97295.88
2022-10-01T19:57:52.754Z,97305.72
2022-10-01T20:00:21.070Z,97306.53
2022-10-01T20:02:56.541Z,97312.38
2022-10-01T20:05:28.118Z,97309.81
2022-10-01T20:08:00.208Z,97318.94
2022-10-01T20:10:33.153Z,97320.88
2022-10-01T20:13:15.822Z,97325.22
2022-10-01T20:15:49.246Z,97331.25
2022-10-01T20:18:28.404Z,97332.56
2022-10-01T20:21:10.360Z,97334.94
2022-10-01T20:23:45.249Z,97335.94
2022-10-01T20:26:21.290Z,97344.06
2022-10-01T20:29:11.583Z,97349.59
2022-10-01T20:31:44.751Z,97357.59
2022-10-01T20:34:21.756Z,97360.84
2022-10-01T20:36:57.582Z,97366.91
2022-10-01T20:39:28.667Z,97372.94
2022-10-01T20:41:56.095Z,97371.00
2022-10-01T20:44:27.222Z,97371.63
2022-10-01T20:46:59.880Z,97375.38
2022-10-01T20:49:32.355Z,97376.00
2022-10-01T20:52:03.546Z,97379.59
2022-10-01T20:54:35.113Z,97392.31
2022-10-01T20:57:07.643Z,97391.50
2022-10-01T20:59:39.987Z,97401.44
2022-10-01T21:02:23.919Z,97418.03
2022-10-01T21:04:56.704Z,97418.53
2022-10-01T21:07:32.632Z,97431.75
2022-10-01T21:10:01.553Z,97439.94
2022-10-01T21:12:35.991Z,97460.84
2022-10-01T21:15:03.369Z,97461.31
2022-10-01T21:17:40.092Z,97469.03
2022-10-01T21:20:42.931Z,97473.34
2022-10-01T21:23:25.205Z,97476.31
2022-10-01T21:26:07.913Z,97467.50
2022-10-01T21:29:02.003Z,97477.66
2022-10-01T21:31:40.473Z,97471.13
2022-10-01T21:34:13.580Z,97479.53
2022-10-01T21:36:58.637Z,97468.03
2022-10-01T21:39:32.377Z,97473.19
2022-10-01T21:42:12.760Z,97467.13
2022-10-01T21:44:59.761Z,97474.50
2022-10-01T21:47:37.810Z,97472.56
2022-10-01T21:50:15.372Z,97468.75
2022-10-01T21:52:56.542Z,97480.97
2022-10-01T21:55:41.836Z,97478.09
2022-10-01T21:58:25.543Z,97486.09
2022-10-01T22:00:59.030Z,97504.31
2022-10-01T22:03:34.092Z,97501.03
2022-10-01T22:06:07.759Z,97492.97
2022-10-01T22:08:55.090Z,97492.03
2022-10-01T22:11:24.364Z,97498.69
2022-10-01T22:13:54.761Z,97490.59
2022-10-01T22:16:24.157Z,97509.22
2022-10-01T22:18:54.165Z,97508.28
2022-10-01T22:21:25.400Z,97504.81
2022-10-01T22:24:01.422Z,97509.00
2022-10-01T22:26:32.421Z,97525.19
2022-10-01T22:29:01.008Z,97533.16
2022-10-01T22:31:32.772Z,97558.66
2022-10-01T22:34:03.041Z,97554.03
2022-10-01T22:36:35.147Z,97558.09
2022-10-01T22:39:11.083Z,97567.25
2022-10-01T22:41:42.163Z,97565.88
2022-10-01T22:44:13.893Z,97570.34
2022-10-01T22:46:58.593Z,97554.53
2022-10-01T22:49:36.537Z,97559.69
2022-10-01T22:52:17.787Z,97574.69
2022-10-01T22:54:56.234Z,97574.44
2022-10-01T22:57:45.484Z,97574.16
2022-10-01T23:00:14.445Z,97583.22
2022-10-01T23:02:45.444Z,97571.03
2022-10-01T23:05:26.508Z,97586.41
2022-10-01T23:08:03.160Z,97588.22
2022-10-01T23:10:38.531Z,97587.59
2022-10-01T23:13:17.212Z,97585.06
2022-10-01T23:15:50.907Z,97593.38
2022-10-01T23:18:29.396Z,97588.19
2022-10-01T23:21:08.976Z,97587.47
2022-10-01T23:23:35.540Z,97587.59
2022-10-01T23:26:19.298Z,97591.09
2022-10-01T23:29:02.612Z,97594.88
2022-10-01T23:31:36.237Z,97587.63
2022-10-01T23:34:21.545Z,97603.75
2022-10-01T23:36:54.317Z,97617.28
2022-10-01T23:39:44.267Z,97619.72
2022-10-01T23:42:24.255Z,97624.88
2022-10-01T23:45:02.093Z,97640.63
2022-10-01T23:47:36.306Z,97627.50
2022-10-01T23:50:05.871Z,97632.38
2022-10-01T23:52:40.896Z,97629.72
2022-10-01T23:55:15.002Z,97636.69
2022-10-01T23:57:43.907Z,97644.00
